sensor_id;sensor_type;location;lat;lon;timestamp;temperature;humidity
35680;DHT22;21803;53.586;10.040;2023-02-28T00:00:35;19.10;41.10
35680;DHT22;21803;53.586;10.040;2023-02-28T00:03:01;19.10;41.00
35680;DHT22;21803;53.586;10.040;2023-02-28T00:05:28;19.10;41.00
35680;DHT22;21803;53.586;10.040;2023-02-28T00:07:54;19.10;41.00
35680;DHT22;21803;53.586;10.040;2023-02-28T00:10:22;19.10;41.00
35680;DHT22;21803;53.586;10.040;2023-02-28T00:12:50;19.10;41.00
35680;DHT22;21803;53.586;10.040;2023-02-28T00:15:16;19.10;41.00
35680;DHT22;21803;53.586;10.040;2023-02-28T00:17:42;19.10;41.00
35680;DHT22;21803;53.586;10.040;2023-02-28T00:20:09;19.10;41.00
35680;DHT22;21803;53.586;10.040;2023-02-28T00:22:36;19.10;41.00
35680;DHT22;21803;53.586;10.040;2023-02-28T00:25:02;19.10;41.00
35680;DHT22;21803;53.586;10.040;2023-02-28T00:27:29;19.10;41.00
35680;DHT22;21803;53.586;10.040;2023-02-28T00:29:54;19.10;41.00
35680;DHT22;21803;53.586;10.040;2023-02-28T00:32:20;19.10;41.00
35680;DHT22;21803;53.586;10.040;2023-02-28T00:34:45;19.10;41.00
35680;DHT22;21803;53.586;10.040;2023-02-28T00:37:11;19.10;41.00
35680;DHT22;21803;53.586;10.040;2023-02-28T00:39:38;19.10;41.00
35680;DHT22;21803;53.586;10.040;2023-02-28T00:42:04;19.10;41.00
35680;DHT22;21803;53.586;10.040;2023-02-28T00:44:30;19.10;41.00
35680;DHT22;21803;53.586;10.040;2023-02-28T00:46:57;19.10;40.90
35680;DHT22;21803;53.586;10.040;2023-02-28T00:49:23;19.10;41.00
35680;DHT22;21803;53.586;10.040;2023-02-28T00:51:49;19.10;41.00
35680;DHT22;21803;53.586;10.040;2023-02-28T00:54:15;19.10;41.00
35680;DHT22;21803;53.586;10.040;2023-02-28T00:56:41;19.10;41.00
35680;DHT22;21803;53.586;10.040;2023-02-28T00:59:06;19.10;41.00
35680;DHT22;21803;53.586;10.040;2023-02-28T01:01:32;19.10;40.90
35680;DHT22;21803;53.586;10.040;2023-02-28T01:03:58;19.10;40.90
35680;DHT22;21803;53.586;10.040;2023-02-28T01:06:23;19.10;41.00
35680;DHT22;21803;53.586;10.040;2023-02-28T01:08:49;19.10;40.90
35680;DHT22;21803;53.586;10.040;2023-02-28T01:11:17;19.10;41.00
35680;DHT22;21803;53.586;10.040;2023-02-28T01:13:43;19.10;40.90
35680;DHT22;21803;53.586;10.040;2023-02-28T01:16:09;19.20;41.00
35680;DHT22;21803;53.586;10.040;2023-02-28T01:18:35;19.10;40.90
35680;DHT22;21803;53.586;10.040;2023-02-28T01:21:10;19.10;40.90
35680;DHT22;21803;53.586;10.040;2023-02-28T01:23:36;19.10;41.00
35680;DHT22;21803;53.586;10.040;2023-02-28T01:26:13;19.10;41.00
35680;DHT22;21803;53.586;10.040;2023-02-28T01:28:39;19.10;40.90
35680;DHT22;21803;53.586;10.040;2023-02-28T01:31:04;19.10;40.90
35680;DHT22;21803;53.586;10.040;2023-02-28T01:33:31;19.10;40.90
35680;DHT22;21803;53.586;10.040;2023-02-28T01:36:07;19.10;40.90
35680;DHT22;21803;53.586;10.040;2023-02-28T01:38:34;19.10;40.90
35680;DHT22;21803;53.586;10.040;2023-02-28T01:41:00;19.10;40.90
35680;DHT22;21803;53.586;10.040;2023-02-28T01:43:31;19.10;40.90
35680;DHT22;21803;53.586;10.040;2023-02-28T01:45:58;19.10;40.90
35680;DHT22;21803;53.586;10.040;2023-02-28T01:48:31;19.10;40.90
35680;DHT22;21803;53.586;10.040;2023-02-28T01:51:02;19.10;40.90
35680;DHT22;21803;53.586;10.040;2023-02-28T01:53:34;19.10;40.90
35680;DHT22;21803;53.586;10.040;2023-02-28T01:56:06;19.10;40.90
35680;DHT22;21803;53.586;10.040;2023-02-28T01:58:32;19.10;40.90
35680;DHT22;21803;53.586;10.040;2023-02-28T02:00:58;19.10;40.90
35680;DHT22;21803;53.586;10.040;2023-02-28T02:03:23;19.10;40.90
35680;DHT22;21803;53.586;10.040;2023-02-28T02:05:49;19.10;40.90
35680;DHT22;21803;53.586;10.040;2023-02-28T02:08:21;19.10;40.90
35680;DHT22;21803;53.586;10.040;2023-02-28T02:10:48;19.10;40.90
35680;DHT22;21803;53.586;10.040;2023-02-28T02:19:27;19.10;40.80
35680;DHT22;21803;53.586;10.040;2023-02-28T02:25:19;19.10;40.80
35680;DHT22;21803;53.586;10.040;2023-02-28T02:28:07;19.10;40.80
35680;DHT22;21803;53.586;10.040;2023-02-28T02:34:02;19.10;40.80
35680;DHT22;21803;53.586;10.040;2023-02-28T02:36:50;19.10;40.90
35680;DHT22;21803;53.586;10.040;2023-02-28T02:40:00;19.10;40.80
35680;DHT22;21803;53.586;10.040;2023-02-28T02:42:36;19.10;40.80
35680;DHT22;21803;53.586;10.040;2023-02-28T02:45:15;19.10;40.90
35680;DHT22;21803;53.586;10.040;2023-02-28T02:47:43;19.10;40.80
35680;DHT22;21803;53.586;10.040;2023-02-28T02:50:16;19.10;40.80
35680;DHT22;21803;53.586;10.040;2023-02-28T02:52:47;19.10;40.90
35680;DHT22;21803;53.586;10.040;2023-02-28T02:55:15;19.10;40.80
35680;DHT22;21803;53.586;10.040;2023-02-28T02:58:09;19.10;40.80
35680;DHT22;21803;53.586;10.040;2023-02-28T03:00:37;19.10;40.80
35680;DHT22;21803;53.586;10.040;2023-02-28T03:03:05;19.10;40.90
35680;DHT22;21803;53.586;10.040;2023-02-28T03:05:46;19.10;40.80
35680;DHT22;21803;53.586;10.040;2023-02-28T03:08:12;19.10;40.80
35680;DHT22;21803;53.586;10.040;2023-02-28T03:10:46;19.10;40.80
35680;DHT22;21803;53.586;10.040;2023-02-28T03:16:15;19.10;40.90
35680;DHT22;21803;53.586;10.040;2023-02-28T03:18:58;19.10;40.80
35680;DHT22;21803;53.586;10.040;2023-02-28T03:21:53;19.10;40.80
35680;DHT22;21803;53.586;10.040;2023-02-28T03:24:37;19.10;40.80
35680;DHT22;21803;53.586;10.040;2023-02-28T03:27:19;19.10;40.80
35680;DHT22;21803;53.586;10.040;2023-02-28T03:30:03;19.10;40.80
35680;DHT22;21803;53.586;10.040;2023-02-28T03:32:35;19.10;40.80
35680;DHT22;21803;53.586;10.040;2023-02-28T03:35:14;19.10;40.70
35680;DHT22;21803;53.586;10.040;2023-02-28T03:37:49;19.10;40.70
35680;DHT22;21803;53.586;10.040;2023-02-28T03:40:19;19.10;40.80
35680;DHT22;21803;53.586;10.040;2023-02-28T03:42:49;19.10;40.70
35680;DHT22;21803;53.586;10.040;2023-02-28T03:45:26;19.10;40.70
35680;DHT22;21803;53.586;10.040;2023-02-28T03:47:59;19.10;40.80
35680;DHT22;21803;53.586;10.040;2023-02-28T03:50:38;19.10;40.80
35680;DHT22;21803;53.586;10.040;2023-02-28T03:53:21;19.10;40.70
35680;DHT22;21803;53.586;10.040;2023-02-28T03:56:01;19.10;40.70
35680;DHT22;21803;53.586;10.040;2023-02-28T03:58:30;19.10;40.70
35680;DHT22;21803;53.586;10.040;2023-02-28T04:01:03;19.10;40.70
35680;DHT22;21803;53.586;10.040;2023-02-28T04:03:34;19.10;40.60
35680;DHT22;21803;53.586;10.040;2023-02-28T04:06:00;19.10;40.60
35680;DHT22;21803;53.586;10.040;2023-02-28T04:08:25;19.10;40.60
35680;DHT22;21803;53.586;10.040;2023-02-28T04:11:06;19.10;40.70
35680;DHT22;21803;53.586;10.040;2023-02-28T04:13:33;19.10;40.60
35680;DHT22;21803;53.586;10.040;2023-02-28T04:15:59;19.00;40.60
35680;DHT22;21803;53.586;10.040;2023-02-28T04:18:25;19.00;40.60
35680;DHT22;21803;53.586;10.040;2023-02-28T04:20:50;19.00;40.60
35680;DHT22;21803;53.586;10.040;2023-02-28T04:23:15;19.10;40.60
35680;DHT22;21803;53.586;10.040;2023-02-28T04:25:41;19.10;41.30
35680;DHT22;21803;53.586;10.040;2023-02-28T04:28:07;19.00;40.60
35680;DHT22;21803;53.586;10.040;2023-02-28T04:30:32;19.10;40.60
35680;DHT22;21803;53.586;10.040;2023-02-28T04:32:58;19.10;40.50
35680;DHT22;21803;53.586;10.040;2023-02-28T04:35:24;18.90;40.40
35680;DHT22;21803;53.586;10.040;2023-02-28T04:37:50;19.10;40.60
35680;DHT22;21803;53.586;10.040;2023-02-28T04:40:16;19.10;40.60
35680;DHT22;21803;53.586;10.040;2023-02-28T04:42:41;19.10;40.50
35680;DHT22;21803;53.586;10.040;2023-02-28T04:45:07;19.10;40.50
35680;DHT22;21803;53.586;10.040;2023-02-28T04:47:35;19.10;40.50
35680;DHT22;21803;53.586;10.040;2023-02-28T04:50:01;19.10;40.50
35680;DHT22;21803;53.586;10.040;2023-02-28T04:52:27;19.10;40.50
35680;DHT22;21803;53.586;10.040;2023-02-28T04:54:53;19.10;40.60
35680;DHT22;21803;53.586;10.040;2023-02-28T04:57:18;19.00;40.60
35680;DHT22;21803;53.586;10.040;2023-02-28T04:59:44;19.10;40.50
35680;DHT22;21803;53.586;10.040;2023-02-28T05:02:09;19.00;40.30
35680;DHT22;21803;53.586;10.040;2023-02-28T05:04:35;19.10;40.50
35680;DHT22;21803;53.586;10.040;2023-02-28T05:07:02;19.10;40.50
35680;DHT22;21803;53.586;10.040;2023-02-28T05:09:28;19.10;40.40
35680;DHT22;21803;53.586;10.040;2023-02-28T05:11:54;19.10;40.30
35680;DHT22;21803;53.586;10.040;2023-02-28T05:14:20;19.10;40.40
35680;DHT22;21803;53.586;10.040;2023-02-28T05:16:45;19.10;40.50
35680;DHT22;21803;53.586;10.040;2023-02-28T05:19:11;19.10;40.30
35680;DHT22;21803;53.586;10.040;2023-02-28T05:21:39;19.10;40.40
35680;DHT22;21803;53.586;10.040;2023-02-28T05:24:07;19.10;40.50
35680;DHT22;21803;53.586;10.040;2023-02-28T05:26:35;19.10;40.40
35680;DHT22;21803;53.586;10.040;2023-02-28T05:29:01;19.00;40.50
35680;DHT22;21803;53.586;10.040;2023-02-28T05:31:27;19.10;40.50
35680;DHT22;21803;53.586;10.040;2023-02-28T05:33:52;19.10;40.40
35680;DHT22;21803;53.586;10.040;2023-02-28T05:36:18;19.10;40.40
35680;DHT22;21803;53.586;10.040;2023-02-28T05:38:46;19.10;40.40
35680;DHT22;21803;53.586;10.040;2023-02-28T05:41:12;19.00;40.50
35680;DHT22;21803;53.586;10.040;2023-02-28T05:43:38;19.10;40.50
35680;DHT22;21803;53.586;10.040;2023-02-28T05:46:09;19.10;40.40
35680;DHT22;21803;53.586;10.040;2023-02-28T05:48:37;19.10;40.30
35680;DHT22;21803;53.586;10.040;2023-02-28T05:51:04;19.10;40.40
35680;DHT22;21803;53.586;10.040;2023-02-28T05:53:30;19.00;40.40
35680;DHT22;21803;53.586;10.040;2023-02-28T05:55:55;19.00;40.30
35680;DHT22;21803;53.586;10.040;2023-02-28T05:58:21;19.00;40.30
35680;DHT22;21803;53.586;10.040;2023-02-28T06:00:48;19.10;40.40
35680;DHT22;21803;53.586;10.040;2023-02-28T06:03:13;19.10;40.40
35680;DHT22;21803;53.586;10.040;2023-02-28T06:05:39;19.00;40.30
35680;DHT22;21803;53.586;10.040;2023-02-28T06:08:05;19.10;40.30
35680;DHT22;21803;53.586;10.040;2023-02-28T06:10:35;19.10;40.30
35680;DHT22;21803;53.586;10.040;2023-02-28T06:13:02;19.10;40.40
35680;DHT22;21803;53.586;10.040;2023-02-28T06:15:28;19.10;40.40
35680;DHT22;21803;53.586;10.040;2023-02-28T06:17:55;19.10;40.40
35680;DHT22;21803;53.586;10.040;2023-02-28T06:20:21;19.10;40.40
35680;DHT22;21803;53.586;10.040;2023-02-28T06:22:47;19.10;40.40
35680;DHT22;21803;53.586;10.040;2023-02-28T06:25:13;19.10;40.40
35680;DHT22;21803;53.586;10.040;2023-02-28T06:27:38;19.00;40.30
35680;DHT22;21803;53.586;10.040;2023-02-28T06:30:04;19.10;40.40
35680;DHT22;21803;53.586;10.040;2023-02-28T06:32:30;19.00;40.40
35680;DHT22;21803;53.586;10.040;2023-02-28T06:34:55;19.00;40.30
35680;DHT22;21803;53.586;10.040;2023-02-28T06:37:22;19.00;40.90
35680;DHT22;21803;53.586;10.040;2023-02-28T06:39:51;19.10;40.40
35680;DHT22;21803;53.586;10.040;2023-02-28T06:42:17;19.10;40.40
35680;DHT22;21803;53.586;10.040;2023-02-28T06:44:42;19.10;40.40
35680;DHT22;21803;53.586;10.040;2023-02-28T06:47:08;19.00;40.20
35680;DHT22;21803;53.586;10.040;2023-02-28T06:49:35;19.10;40.30
35680;DHT22;21803;53.586;10.040;2023-02-28T06:52:00;19.10;40.30
35680;DHT22;21803;53.586;10.040;2023-02-28T06:54:26;19.00;40.20
35680;DHT22;21803;53.586;10.040;2023-02-28T06:56:52;19.00;40.30
35680;DHT22;21803;53.586;10.040;2023-02-28T06:59:20;19.00;40.20
35680;DHT22;21803;53.586;10.040;2023-02-28T07:01:45;19.10;40.40
35680;DHT22;21803;53.586;10.040;2023-02-28T07:04:11;19.00;40.40
35680;DHT22;21803;53.586;10.040;2023-02-28T07:06:38;19.00;40.30
35680;DHT22;21803;53.586;10.040;2023-02-28T07:09:04;19.10;40.40
35680;DHT22;21803;53.586;10.040;2023-02-28T07:11:29;19.00;40.30
35680;DHT22;21803;53.586;10.040;2023-02-28T07:13:55;19.10;40.40
35680;DHT22;21803;53.586;10.040;2023-02-28T07:16:22;19.10;40.40
35680;DHT22;21803;53.586;10.040;2023-02-28T07:18:48;18.90;40.30
35680;DHT22;21803;53.586;10.040;2023-02-28T07:21:14;19.10;40.30
35680;DHT22;21803;53.586;10.040;2023-02-28T07:23:40;19.10;40.30
35680;DHT22;21803;53.586;10.040;2023-02-28T07:26:11;19.10;40.30
35680;DHT22;21803;53.586;10.040;2023-02-28T07:28:38;19.10;40.30
35680;DHT22;21803;53.586;10.040;2023-02-28T07:31:04;19.00;40.30
35680;DHT22;21803;53.586;10.040;2023-02-28T07:33:30;19.10;40.40
35680;DHT22;21803;53.586;10.040;2023-02-28T07:36:03;19.10;40.30
35680;DHT22;21803;53.586;10.040;2023-02-28T07:38:29;19.10;40.40
35680;DHT22;21803;53.586;10.040;2023-02-28T07:40:55;19.00;40.20
35680;DHT22;21803;53.586;10.040;2023-02-28T07:43:20;19.00;40.90
35680;DHT22;21803;53.586;10.040;2023-02-28T07:45:46;19.10;40.40
35680;DHT22;21803;53.586;10.040;2023-02-28T07:48:11;19.10;40.40
35680;DHT22;21803;53.586;10.040;2023-02-28T07:50:37;19.00;40.30
35680;DHT22;21803;53.586;10.040;2023-02-28T07:53:03;19.10;40.20
35680;DHT22;21803;53.586;10.040;2023-02-28T07:55:29;19.10;40.30
35680;DHT22;21803;53.586;10.040;2023-02-28T07:57:56;19.10;40.30
35680;DHT22;21803;53.586;10.040;2023-02-28T08:00:22;19.10;40.30
35680;DHT22;21803;53.586;10.040;2023-02-28T08:02:48;19.10;40.40
35680;DHT22;21803;53.586;10.040;2023-02-28T08:05:14;19.10;40.30
35680;DHT22;21803;53.586;10.040;2023-02-28T08:07:39;19.10;40.30
35680;DHT22;21803;53.586;10.040;2023-02-28T08:10:05;19.10;40.30
35680;DHT22;21803;53.586;10.040;2023-02-28T08:12:31;19.10;40.30
35680;DHT22;21803;53.586;10.040;2023-02-28T08:14:56;19.10;40.30
35680;DHT22;21803;53.586;10.040;2023-02-28T08:17:22;19.10;40.20
35680;DHT22;21803;53.586;10.040;2023-02-28T08:19:47;19.00;40.30
35680;DHT22;21803;53.586;10.040;2023-02-28T08:22:13;19.10;40.40
35680;DHT22;21803;53.586;10.040;2023-02-28T08:24:41;19.10;40.30
35680;DHT22;21803;53.586;10.040;2023-02-28T08:27:07;19.10;40.20
35680;DHT22;21803;53.586;10.040;2023-02-28T08:29:32;19.10;40.30
35680;DHT22;21803;53.586;10.040;2023-02-28T08:31:58;19.10;40.30
35680;DHT22;21803;53.586;10.040;2023-02-28T08:34:24;19.10;40.30
35680;DHT22;21803;53.586;10.040;2023-02-28T08:36:49;19.10;40.30
35680;DHT22;21803;53.586;10.040;2023-02-28T08:39:15;19.10;40.90
35680;DHT22;21803;53.586;10.040;2023-02-28T08:41:42;19.10;40.40
35680;DHT22;21803;53.586;10.040;2023-02-28T08:44:07;19.10;40.30
35680;DHT22;21803;53.586;10.040;2023-02-28T08:46:33;19.10;40.30
35680;DHT22;21803;53.586;10.040;2023-02-28T08:48:58;19.10;40.30
35680;DHT22;21803;53.586;10.040;2023-02-28T08:51:27;19.10;40.40
35680;DHT22;21803;53.586;10.040;2023-02-28T08:53:58;19.10;40.30
35680;DHT22;21803;53.586;10.040;2023-02-28T08:56:24;19.10;40.30
35680;DHT22;21803;53.586;10.040;2023-02-28T08:58:50;19.10;40.30
35680;DHT22;21803;53.586;10.040;2023-02-28T09:01:27;19.10;40.30
35680;DHT22;21803;53.586;10.040;2023-02-28T09:03:54;19.10;40.40
35680;DHT22;21803;53.586;10.040;2023-02-28T09:06:22;19.10;40.40
35680;DHT22;21803;53.586;10.040;2023-02-28T09:08:48;19.10;40.40
35680;DHT22;21803;53.586;10.040;2023-02-28T09:11:13;19.00;40.30
35680;DHT22;21803;53.586;10.040;2023-02-28T09:13:39;19.10;40.30
35680;DHT22;21803;53.586;10.040;2023-02-28T09:16:07;19.10;40.20
35680;DHT22;21803;53.586;10.040;2023-02-28T09:18:35;19.00;40.20
35680;DHT22;21803;53.586;10.040;2023-02-28T09:21:04;19.10;40.30
35680;DHT22;21803;53.586;10.040;2023-02-28T09:23:30;19.10;40.20
35680;DHT22;21803;53.586;10.040;2023-02-28T09:25:55;19.00;40.20
35680;DHT22;21803;53.586;10.040;2023-02-28T09:28:22;19.10;40.30
35680;DHT22;21803;53.586;10.040;2023-02-28T09:30:50;19.00;40.30
35680;DHT22;21803;53.586;10.040;2023-02-28T09:33:17;19.10;40.30
35680;DHT22;21803;53.586;10.040;2023-02-28T09:35:44;19.10;40.30
35680;DHT22;21803;53.586;10.040;2023-02-28T09:38:10;19.10;40.20
35680;DHT22;21803;53.586;10.040;2023-02-28T09:40:49;19.10;40.20
35680;DHT22;21803;53.586;10.040;2023-02-28T09:43:17;19.10;40.30
35680;DHT22;21803;53.586;10.040;2023-02-28T09:45:52;19.10;40.30
35680;DHT22;21803;53.586;10.040;2023-02-28T09:48:27;19.10;40.30
35680;DHT22;21803;53.586;10.040;2023-02-28T09:51:04;19.10;40.30
35680;DHT22;21803;53.586;10.040;2023-02-28T09:53:31;19.10;40.20
35680;DHT22;21803;53.586;10.040;2023-02-28T09:56:21;19.10;40.30
35680;DHT22;21803;53.586;10.040;2023-02-28T10:01:52;19.10;40.30
35680;DHT22;21803;53.586;10.040;2023-02-28T10:07:50;19.10;40.30
35680;DHT22;21803;53.586;10.040;2023-02-28T10:10:24;19.10;40.10
35680;DHT22;21803;53.586;10.040;2023-02-28T10:12:54;19.10;40.20
35680;DHT22;21803;53.586;10.040;2023-02-28T10:15:23;19.10;40.80
35680;DHT22;21803;53.586;10.040;2023-02-28T10:17:54;19.00;40.30
35680;DHT22;21803;53.586;10.040;2023-02-28T10:20:21;19.00;40.10
35680;DHT22;21803;53.586;10.040;2023-02-28T10:25:45;19.10;40.30
35680;DHT22;21803;53.586;10.040;2023-02-28T10:28:15;19.10;40.10
35680;DHT22;21803;53.586;10.040;2023-02-28T10:30:43;19.00;40.20
35680;DHT22;21803;53.586;10.040;2023-02-28T10:33:19;19.10;40.30
35680;DHT22;21803;53.586;10.040;2023-02-28T10:35:46;19.00;40.20
35680;DHT22;21803;53.586;10.040;2023-02-28T10:38:21;19.00;40.20
35680;DHT22;21803;53.586;10.040;2023-02-28T10:40:47;19.10;40.20
35680;DHT22;21803;53.586;10.040;2023-02-28T10:45:39;19.00;40.10
35680;DHT22;21803;53.586;10.040;2023-02-28T11:01:43;19.10;40.10
35680;DHT22;21803;53.586;10.040;2023-02-28T11:07:11;19.00;40.00
35680;DHT22;21803;53.586;10.040;2023-02-28T11:09:45;19.10;40.00
35680;DHT22;21803;53.586;10.040;2023-02-28T11:12:34;19.10;40.00
35680;DHT22;21803;53.586;10.040;2023-02-28T11:15:05;19.00;40.00
35680;DHT22;21803;53.586;10.040;2023-02-28T11:17:32;19.10;40.10
35680;DHT22;21803;53.586;10.040;2023-02-28T11:20:04;19.00;40.00
35680;DHT22;21803;53.586;10.040;2023-02-28T11:22:35;19.10;40.10
35680;DHT22;21803;53.586;10.040;2023-02-28T11:25:07;19.00;40.00
35680;DHT22;21803;53.586;10.040;2023-02-28T11:30:03;17.80;39.40
35680;DHT22;21803;53.586;10.040;2023-02-28T11:32:30;19.10;40.10
35680;DHT22;21803;53.586;10.040;2023-02-28T11:37:30;19.10;40.00
35680;DHT22;21803;53.586;10.040;2023-02-28T11:39:56;19.10;40.00
35680;DHT22;21803;53.586;10.040;2023-02-28T11:42:54;19.10;40.00
35680;DHT22;21803;53.586;10.040;2023-02-28T11:45:45;19.00;39.90
35680;DHT22;21803;53.586;10.040;2023-02-28T11:48:22;19.10;39.90
35680;DHT22;21803;53.586;10.040;2023-02-28T11:53:45;19.10;39.90
35680;DHT22;21803;53.586;10.040;2023-02-28T11:56:40;19.10;40.00
35680;DHT22;21803;53.586;10.040;2023-02-28T12:08:04;19.00;39.90
35680;DHT22;21803;53.586;10.040;2023-02-28T12:17:03;19.00;39.90
35680;DHT22;21803;53.586;10.040;2023-02-28T12:19:54;19.00;39.90
35680;DHT22;21803;53.586;10.040;2023-02-28T12:22:48;19.00;39.80
35680;DHT22;21803;53.586;10.040;2023-02-28T12:28:02;19.10;40.00
35680;DHT22;21803;53.586;10.040;2023-02-28T12:30:32;19.00;39.90
35680;DHT22;21803;53.586;10.040;2023-02-28T12:33:03;19.00;39.80
35680;DHT22;21803;53.586;10.040;2023-02-28T12:35:37;19.10;39.80
35680;DHT22;21803;53.586;10.040;2023-02-28T12:38:05;19.00;39.80
35680;DHT22;21803;53.586;10.040;2023-02-28T12:40:56;19.00;39.70
35680;DHT22;21803;53.586;10.040;2023-02-28T12:43:27;19.10;39.80
35680;DHT22;21803;53.586;10.040;2023-02-28T12:46:14;19.10;39.80
35680;DHT22;21803;53.586;10.040;2023-02-28T12:48:46;19.10;39.90
35680;DHT22;21803;53.586;10.040;2023-02-28T12:51:13;19.00;39.70
35680;DHT22;21803;53.586;10.040;2023-02-28T12:53:50;19.00;39.80
35680;DHT22;21803;53.586;10.040;2023-02-28T12:56:42;19.10;39.80
35680;DHT22;21803;53.586;10.040;2023-02-28T13:10:20;19.00;40.30
35680;DHT22;21803;53.586;10.040;2023-02-28T13:12:53;19.10;39.80
35680;DHT22;21803;53.586;10.040;2023-02-28T13:15:26;19.10;39.80
35680;DHT22;21803;53.586;10.040;2023-02-28T13:17:56;19.00;39.70
35680;DHT22;21803;53.586;10.040;2023-02-28T13:20:36;19.10;39.80
35680;DHT22;21803;53.586;10.040;2023-02-28T13:23:02;19.10;39.70
35680;DHT22;21803;53.586;10.040;2023-02-28T13:28:00;19.10;39.70
35680;DHT22;21803;53.586;10.040;2023-02-28T13:33:34;19.00;39.60
35680;DHT22;21803;53.586;10.040;2023-02-28T13:38:53;19.00;39.60
35680;DHT22;21803;53.586;10.040;2023-02-28T13:46:26;19.00;39.60
35680;DHT22;21803;53.586;10.040;2023-02-28T13:48:52;19.10;39.70
35680;DHT22;21803;53.586;10.040;2023-02-28T13:51:40;19.10;39.60
35680;DHT22;21803;53.586;10.040;2023-02-28T13:57:10;19.00;39.50
35680;DHT22;21803;53.586;10.040;2023-02-28T13:59:47;19.10;39.60
35680;DHT22;21803;53.586;10.040;2023-02-28T14:02:52;18.90;39.40
35680;DHT22;21803;53.586;10.040;2023-02-28T14:05:20;19.10;39.60
35680;DHT22;21803;53.586;10.040;2023-02-28T14:07:53;19.10;39.60
35680;DHT22;21803;53.586;10.040;2023-02-28T14:10:31;19.10;39.70
35680;DHT22;21803;53.586;10.040;2023-02-28T14:13:10;19.10;39.60
35680;DHT22;21803;53.586;10.040;2023-02-28T14:15:49;19.10;39.60
35680;DHT22;21803;53.586;10.040;2023-02-28T14:20:48;19.10;39.60
35680;DHT22;21803;53.586;10.040;2023-02-28T14:29:09;19.10;39.50
35680;DHT22;21803;53.586;10.040;2023-02-28T14:31:41;19.10;39.60
35680;DHT22;21803;53.586;10.040;2023-02-28T14:34:20;19.00;39.50
35680;DHT22;21803;53.586;10.040;2023-02-28T14:36:50;19.10;39.60
35680;DHT22;21803;53.586;10.040;2023-02-28T14:39:21;19.00;39.50
35680;DHT22;21803;53.586;10.040;2023-02-28T14:41:47;19.10;39.60
35680;DHT22;21803;53.586;10.040;2023-02-28T14:44:21;19.10;39.50
35680;DHT22;21803;53.586;10.040;2023-02-28T14:47:02;19.10;39.60
35680;DHT22;21803;53.586;10.040;2023-02-28T14:49:35;19.10;39.60
35680;DHT22;21803;53.586;10.040;2023-02-28T14:52:09;19.10;39.40
35680;DHT22;21803;53.586;10.040;2023-02-28T14:54:38;19.10;39.40
35680;DHT22;21803;53.586;10.040;2023-02-28T14:57:05;19.10;39.50
35680;DHT22;21803;53.586;10.040;2023-02-28T14:59:33;19.10;39.50
35680;DHT22;21803;53.586;10.040;2023-02-28T15:04:43;19.10;39.60
35680;DHT22;21803;53.586;10.040;2023-02-28T15:07:15;19.10;39.40
35680;DHT22;21803;53.586;10.040;2023-02-28T15:09:41;19.10;39.40
35680;DHT22;21803;53.586;10.040;2023-02-28T15:12:07;19.10;39.60
35680;DHT22;21803;53.586;10.040;2023-02-28T15:14:37;19.10;39.60
35680;DHT22;21803;53.586;10.040;2023-02-28T15:17:08;19.10;39.60
35680;DHT22;21803;53.586;10.040;2023-02-28T15:19:40;19.10;39.50
35680;DHT22;21803;53.586;10.040;2023-02-28T15:22:16;19.10;39.50
35680;DHT22;21803;53.586;10.040;2023-02-28T15:24:51;19.10;39.40
35680;DHT22;21803;53.586;10.040;2023-02-28T15:27:30;19.00;39.30
35680;DHT22;21803;53.586;10.040;2023-02-28T15:30:00;19.10;39.40
35680;DHT22;21803;53.586;10.040;2023-02-28T15:34:57;19.10;40.00
35680;DHT22;21803;53.586;10.040;2023-02-28T15:37:40;19.10;39.40
35680;DHT22;21803;53.586;10.040;2023-02-28T15:40:18;19.10;39.40
35680;DHT22;21803;53.586;10.040;2023-02-28T15:45:37;19.10;39.40
35680;DHT22;21803;53.586;10.040;2023-02-28T15:48:05;19.10;39.40
35680;DHT22;21803;53.586;10.040;2023-02-28T15:50:36;19.10;40.00
35680;DHT22;21803;53.586;10.040;2023-02-28T15:53:01;19.10;39.40
35680;DHT22;21803;53.586;10.040;2023-02-28T15:55:29;19.10;39.40
35680;DHT22;21803;53.586;10.040;2023-02-28T15:58:00;19.10;39.40
35680;DHT22;21803;53.586;10.040;2023-02-28T16:00:28;19.10;39.40
35680;DHT22;21803;53.586;10.040;2023-02-28T16:02:54;19.10;39.40
35680;DHT22;21803;53.586;10.040;2023-02-28T16:05:29;19.10;39.40
35680;DHT22;21803;53.586;10.040;2023-02-28T16:07:59;19.10;39.40
35680;DHT22;21803;53.586;10.040;2023-02-28T16:10:28;19.10;39.40
35680;DHT22;21803;53.586;10.040;2023-02-28T16:12:55;19.00;39.40
35680;DHT22;21803;53.586;10.040;2023-02-28T16:15:29;19.10;39.50
35680;DHT22;21803;53.586;10.040;2023-02-28T16:17:56;19.10;39.40
35680;DHT22;21803;53.586;10.040;2023-02-28T16:20:28;19.10;39.40
35680;DHT22;21803;53.586;10.040;2023-02-28T16:22:54;19.10;39.50
35680;DHT22;21803;53.586;10.040;2023-02-28T16:25:33;19.00;39.40
35680;DHT22;21803;53.586;10.040;2023-02-28T16:27:59;19.10;39.30
35680;DHT22;21803;53.586;10.040;2023-02-28T16:30:27;19.10;39.40
35680;DHT22;21803;53.586;10.040;2023-02-28T16:32:55;19.10;39.30
35680;DHT22;21803;53.586;10.040;2023-02-28T16:35:21;19.00;39.40
35680;DHT22;21803;53.586;10.040;2023-02-28T16:37:47;19.10;39.30
35680;DHT22;21803;53.586;10.040;2023-02-28T16:40:18;19.10;39.20
35680;DHT22;21803;53.586;10.040;2023-02-28T16:42:46;19.10;39.20
35680;DHT22;21803;53.586;10.040;2023-02-28T16:45:26;19.00;39.20
35680;DHT22;21803;53.586;10.040;2023-02-28T16:47:52;19.10;39.30
35680;DHT22;21803;53.586;10.040;2023-02-28T16:50:20;19.10;39.40
35680;DHT22;21803;53.586;10.040;2023-02-28T16:52:46;19.10;39.40
35680;DHT22;21803;53.586;10.040;2023-02-28T16:55:13;19.00;39.20
35680;DHT22;21803;53.586;10.040;2023-02-28T16:57:39;19.10;39.30
35680;DHT22;21803;53.586;10.040;2023-02-28T17:00:07;19.00;39.30
35680;DHT22;21803;53.586;10.040;2023-02-28T17:02:33;19.00;39.20
35680;DHT22;21803;53.586;10.040;2023-02-28T17:05:00;19.00;39.30
35680;DHT22;21803;53.586;10.040;2023-02-28T17:07:26;19.00;39.30
35680;DHT22;21803;53.586;10.040;2023-02-28T17:09:51;19.00;39.20
35680;DHT22;21803;53.586;10.040;2023-02-28T17:12:17;19.00;39.30
35680;DHT22;21803;53.586;10.040;2023-02-28T17:14:42;19.00;39.40
35680;DHT22;21803;53.586;10.040;2023-02-28T17:17:14;19.00;39.30
35680;DHT22;21803;53.586;10.040;2023-02-28T17:19:41;19.10;39.30
35680;DHT22;21803;53.586;10.040;2023-02-28T17:22:09;19.10;39.30
35680;DHT22;21803;53.586;10.040;2023-02-28T17:24:35;19.00;39.10